createdAt,value
2023-02-25T00:01:51.349Z,99467.66
2023-02-25T00:04:29.186Z,99551.41
2023-02-25T00:06:57.257Z,99483.38
2023-02-25T00:09:25.326Z,99473.59
2023-02-25T00:11:53.320Z,99574.31
2023-02-25T00:14:22.103Z,99549.78
2023-02-25T00:16:51.192Z,99573.59
2023-02-25T00:19:19.219Z,99476.84
2023-02-25T00:21:47.020Z,99568.88
2023-02-25T00:24:16.966Z,99556.13
2023-02-25T00:26:48.460Z,99500.25
2023-02-25T00:29:16.389Z,99490.53
2023-02-25T00:31:44.695Z,99406.53
2023-02-25T00:34:12.750Z,99552.00
2023-02-25T00:36:41.240Z,99535.13
2023-02-25T00:39:09.658Z,99458.84
2023-02-25T00:41:37.856Z,99414.25
2023-02-25T00:44:07.281Z,99540.25
2023-02-25T00:46:35.589Z,99518.56
2023-02-25T00:49:05.574Z,99490.72
2023-02-25T00:51:33.972Z,99503.28
2023-02-25T00:54:03.520Z,99426.31
2023-02-25T00:56:31.389Z,99452.03
2023-02-25T00:58:59.975Z,99469.50
2023-02-25T01:01:30.493Z,99521.66
2023-02-25T01:03:58.794Z,99458.06
2023-02-25T01:06:29.512Z,99519.25
2023-02-25T01:08:59.069Z,99518.44
2023-02-25T01:11:31.315Z,99519.56
2023-02-25T01:14:01.799Z,99503.88
2023-02-25T01:16:34.686Z,99359.03
2023-02-25T01:19:06.536Z,99519.75
2023-02-25T01:21:38.585Z,99418.88
2023-02-25T01:24:11.477Z,99510.00
2023-02-25T01:26:45.210Z,99186.03
2023-02-25T01:29:21.510Z,99254.25
2023-02-25T01:31:56.503Z,99234.50
2023-02-25T01:34:25.037Z,99255.56
2023-02-25T01:36:53.434Z,99493.03
2023-02-25T01:39:26.217Z,99436.66
2023-02-25T01:41:57.414Z,99485.50
2023-02-25T01:44:33.091Z,99494.72
2023-02-25T01:47:01.830Z,99468.81
2023-02-25T01:49:43.184Z,99447.81
2023-02-25T01:52:18.500Z,99385.47
2023-02-25T01:54:50.470Z,99369.91
2023-02-25T01:57:22.807Z,99476.16
2023-02-25T01:59:55.422Z,99383.97
2023-02-25T02:02:26.802Z,99471.03
2023-02-25T02:04:56.268Z,99476.75
2023-02-25T02:07:25.086Z,99431.75
2023-02-25T02:10:00.207Z,99412.28
2023-02-25T02:12:41.129Z,99441.81
2023-02-25T02:15:12.943Z,99458.50
2023-02-25T02:17:55.250Z,99405.16
2023-02-25T02:20:29.883Z,99448.44
2023-02-25T02:23:39.549Z,99396.81
2023-02-25T02:26:25.087Z,99426.75
2023-02-25T02:29:27.131Z,99437.91
2023-02-25T02:32:23.128Z,99397.28
2023-02-25T02:34:54.868Z,99434.78
2023-02-25T02:37:31.782Z,99432.88
2023-02-25T02:40:23.810Z,99430.66
2023-02-25T02:43:13.315Z,99423.94
2023-02-25T02:45:47.238Z,99422.03
2023-02-25T02:48:44.012Z,99421.03
2023-02-25T02:51:22.220Z,99419.63
2023-02-25T02:53:56.206Z,99385.56
2023-02-25T02:56:27.439Z,99414.50
2023-02-25T02:59:10.392Z,99413.28
2023-02-25T03:01:48.214Z,99421.13
2023-02-25T03:04:22.701Z,99303.00
2023-02-25T03:06:58.125Z,99373.91
2023-02-25T03:09:32.795Z,99285.03
2023-02-25T03:12:02.829Z,99388.78
2023-02-25T03:14:33.765Z,99407.84
2023-02-25T03:17:09.737Z,99401.03
2023-02-25T03:19:42.799Z,99397.81
2023-02-25T03:22:20.577Z,99309.50
2023-02-25T03:25:03.982Z,99344.91
2023-02-25T03:27:35.142Z,99394.13
2023-02-25T03:30:12.793Z,99389.59
2023-02-25T03:32:46.932Z,99386.88
2023-02-25T03:35:18.116Z,99277.19
2023-02-25T03:37:50.401Z,99369.59
2023-02-25T03:40:21.637Z,99299.69
2023-02-25T03:43:18.502Z,99377.44
2023-02-25T03:45:47.068Z,99380.16
2023-02-25T03:48:17.248Z,99342.41
2023-02-25T03:50:51.695Z,99253.75
2023-02-25T03:53:20.280Z,99374.94
2023-02-25T03:55:52.226Z,99278.53
2023-02-25T03:58:20.478Z,99342.19
2023-02-25T04:00:54.445Z,99265.06
2023-02-25T04:03:22.532Z,99372.81
2023-02-25T04:05:50.289Z,99369.00
2023-02-25T04:08:20.162Z,99371.38
2023-02-25T04:10:48.222Z,99313.72
2023-02-25T04:13:20.590Z,99289.25
2023-02-25T04:15:50.594Z,99299.69
2023-02-25T04:18:18.553Z,99364.28
2023-02-25T04:20:46.307Z,99356.06
2023-02-25T04:23:18.267Z,99359.06
2023-02-25T04:25:45.946Z,99337.19
2023-02-25T04:28:13.678Z,99337.97
2023-02-25T04:30:41.549Z,99284.84
2023-02-25T04:33:11.278Z,99358.34
2023-02-25T04:35:40.292Z,99333.16
2023-02-25T04:38:10.369Z,99358.66
2023-02-25T04:40:38.329Z,99298.47
2023-02-25T04:43:06.677Z,99354.03
2023-02-25T04:45:34.902Z,99357.25
2023-02-25T04:48:05.145Z,99184.72
2023-02-25T04:50:33.135Z,99288.22
2023-02-25T04:53:02.504Z,99308.91
2023-02-25T04:55:31.624Z,99353.25
2023-02-25T04:58:02.788Z,99273.78
2023-02-25T05:00:30.630Z,99350.00
2023-02-25T05:02:59.182Z,99260.16
2023-02-25T05:05:27.060Z,99295.66
2023-02-25T05:07:54.949Z,99305.09
2023-02-25T05:10:22.797Z,99283.22
2023-02-25T05:12:50.417Z,99343.22
2023-02-25T05:15:18.229Z,99326.56
2023-02-25T05:17:46.212Z,99220.75
2023-02-25T05:20:14.077Z,99347.63
2023-02-25T05:22:42.117Z,99314.72
2023-02-25T05:25:10.742Z,99041.94
2023-02-25T05:27:38.669Z,99261.97
2023-02-25T05:30:07.586Z,99285.72
2023-02-25T05:32:39.065Z,99266.19
2023-02-25T05:35:09.106Z,99291.47
2023-02-25T05:37:37.534Z,99255.75
2023-02-25T05:40:07.327Z,99320.34
2023-02-25T05:42:35.262Z,99247.22
2023-02-25T05:45:03.312Z,99286.84
2023-02-25T05:47:31.156Z,99240.31
2023-02-25T05:49:58.843Z,99329.34
2023-02-25T05:52:27.759Z,99278.31
2023-02-25T05:54:55.601Z,99283.50
2023-02-25T05:57:24.201Z,99205.00
2023-02-25T05:59:51.979Z,99251.84
2023-02-25T06:02:19.745Z,99282.41
2023-02-25T06:04:48.322Z,99297.94
2023-02-25T06:07:16.137Z,99275.00
2023-02-25T06:09:44.098Z,99282.94
2023-02-25T06:12:11.910Z,99255.34
2023-02-25T06:14:39.948Z,99279.13
2023-02-25T06:17:07.724Z,99296.97
2023-02-25T06:19:35.736Z,99275.91
2023-02-25T06:22:03.702Z,99311.09
2023-02-25T06:24:31.722Z,99305.28
2023-02-25T06:26:59.507Z,99240.78
2023-02-25T06:29:27.297Z,99248.50
2023-02-25T06:31:55.222Z,99315.88
2023-02-25T06:34:23.520Z,99308.69
2023-02-25T06:36:51.809Z,99275.38
2023-02-25T06:39:19.485Z,99256.91
2023-02-25T06:41:49.733Z,99281.19
2023-02-25T06:44:17.593Z,99304.63
2023-02-25T06:46:45.543Z,99214.00
2023-02-25T06:49:13.318Z,99306.75
2023-02-25T06:51:41.617Z,99258.41
2023-02-25T06:54:10.349Z,99262.63
2023-02-25T06:56:38.831Z,99219.81
2023-02-25T06:59:07.811Z,99175.53
2023-02-25T07:01:37.380Z,99298.91
2023-02-25T07:04:05.534Z,99283.75
2023-02-25T07:06:33.285Z,99280.75
2023-02-25T07:09:01.342Z,99309.66
2023-02-25T07:11:33.733Z,99084.63
2023-02-25T07:14:05.480Z,99231.94
2023-02-25T07:16:34.738Z,99301.59
2023-02-25T07:19:02.559Z,99219.91
2023-02-25T07:21:31.346Z,99326.91
2023-02-25T07:24:00.770Z,99222.63
2023-02-25T07:26:28.840Z,99313.50
2023-02-25T07:28:58.635Z,99337.34
2023-02-25T07:31:28.632Z,99325.44
2023-02-25T07:33:56.668Z,99310.06
2023-02-25T07:36:27.737Z,99332.16
2023-02-25T07:38:55.686Z,99259.13
2023-02-25T07:41:23.852Z,99346.41
2023-02-25T07:43:52.684Z,99370.38
2023-02-25T07:46:22.476Z,99307.25
2023-02-25T07:48:50.311Z,99257.03
2023-02-25T07:51:23.938Z,99289.09
2023-02-25T07:53:54.059Z,99332.00
2023-02-25T07:56:25.115Z,99358.41
2023-02-25T07:58:52.878Z,99301.53
2023-02-25T08:01:30.066Z,99347.13
2023-02-25T08:04:01.540Z,99316.34
2023-02-25T08:06:29.577Z,99320.84
2023-02-25T08:08:57.461Z,99278.84
2023-02-25T08:11:26.613Z,99333.63
2023-02-25T08:13:54.713Z,99276.16
2023-02-25T08:16:23.574Z,99331.06
2023-02-25T08:18:53.143Z,99320.63
2023-02-25T08:21:23.665Z,99334.06
2023-02-25T08:23:53.292Z,99289.72
2023-02-25T08:26:22.842Z,99335.72
2023-02-25T08:28:51.549Z,99242.00
2023-02-25T08:31:20.540Z,99244.75
2023-02-25T08:33:51.193Z,99280.66
2023-02-25T08:36:27.073Z,99335.00
2023-02-25T08:38:57.631Z,99337.94
2023-02-25T08:41:27.744Z,99325.13
2023-02-25T08:43:56.799Z,99223.09
2023-02-25T08:46:30.246Z,99262.03
2023-02-25T08:48:58.569Z,99189.25
2023-02-25T08:51:34.405Z,99220.78
2023-02-25T08:54:08.532Z,99323.53
2023-02-25T08:56:36.902Z,99260.25
2023-02-25T08:59:05.358Z,99324.16
2023-02-25T09:01:45.464Z,99302.69
2023-02-25T09:04:19.168Z,99281.59
2023-02-25T09:06:47.808Z,99320.88
2023-02-25T09:09:17.635Z,99244.53
2023-02-25T09:11:47.037Z,99251.38
2023-02-25T09:14:15.613Z,99246.38
2023-02-25T09:16:44.473Z,99316.50
2023-02-25T09:19:12.854Z,99267.03
2023-02-25T09:21:41.384Z,99304.53
2023-02-25T09:24:09.700Z,99207.72
2023-02-25T09:26:38.109Z,99303.25
2023-02-25T09:29:07.490Z,99249.78
2023-02-25T09:31:37.856Z,99217.78
2023-02-25T09:34:08.809Z,99296.19
2023-02-25T09:36:38.348Z,99244.09
2023-02-25T09:39:10.589Z,99294.09
2023-02-25T09:41:50.656Z,99299.91
2023-02-25T09:44:29.196Z,99189.50
2023-02-25T09:47:04.557Z,99305.13
2023-02-25T09:49:48.638Z,99300.34
2023-02-25T09:52:29.928Z,99301.94
2023-02-25T09:55:06.493Z,99295.81
2023-02-25T09:57:42.391Z,99268.53
2023-02-25T10:00:21.899Z,99244.16
2023-02-25T10:03:22.363Z,99305.41
2023-02-25T10:06:17.793Z,99307.13
2023-02-25T10:08:57.828Z,99304.72
2023-02-25T10:12:10.244Z,99308.22
2023-02-25T10:14:54.698Z,99302.78
2023-02-25T10:17:27.239Z,99300.22
2023-02-25T10:20:20.129Z,99299.91
2023-02-25T10:23:06.158Z,99308.06
2023-02-25T10:25:42.028Z,99301.81
2023-02-25T10:28:18.563Z,99311.88
2023-02-25T10:31:14.445Z,99303.91
2023-02-25T10:33:46.169Z,99280.22
2023-02-25T10:36:28.167Z,99294.53
2023-02-25T10:38:59.470Z,99300.59
2023-02-25T10:41:27.881Z,99250.69
2023-02-25T10:43:56.437Z,99291.34
2023-02-25T10:46:34.410Z,99303.97
2023-02-25T10:49:16.316Z,99296.81
2023-02-25T10:52:03.113Z,99297.50
2023-02-25T10:54:44.927Z,99292.25
2023-02-25T10:57:34.890Z,99290.81
2023-02-25T11:00:21.627Z,99266.75
2023-02-25T11:02:50.907Z,99297.22
2023-02-25T11:05:38.621Z,99290.19
2023-02-25T11:08:26.799Z,99292.91
2023-02-25T11:11:13.289Z,99290.19
2023-02-25T11:13:41.684Z,99272.38
2023-02-25T11:16:13.809Z,99207.63
2023-02-25T11:18:42.063Z,99291.44
2023-02-25T11:21:13.739Z,99284.25
2023-02-25T11:23:49.154Z,99276.13
2023-02-25T11:26:37.404Z,99282.66
2023-02-25T11:29:19.286Z,99278.81
2023-02-25T11:31:54.288Z,99269.09
2023-02-25T11:34:33.060Z,99234.47
2023-02-25T11:37:50.853Z,99271.94
2023-02-25T11:40:32.166Z,99274.78
2023-02-25T11:43:17.775Z,99274.78
2023-02-25T11:46:00.503Z,99275.28
2023-02-25T11:48:52.127Z,99244.22
2023-02-25T11:51:32.053Z,99268.91
2023-02-25T11:54:22.050Z,99269.41
2023-02-25T11:56:55.519Z,99185.81
2023-02-25T11:59:56.259Z,99262.06
2023-02-25T12:02:41.660Z,99254.88
2023-02-25T12:05:43.962Z,99250.72
2023-02-25T12:08:23.632Z,99234.06
2023-02-25T12:11:10.054Z,99247.38
2023-02-25T12:14:10.293Z,99245.44
2023-02-25T12:16:57.036Z,99240.03
2023-02-25T12:19:34.299Z,99240.81
2023-02-25T12:22:36.929Z,99198.50
2023-02-25T12:25:50.628Z,99238.41
2023-02-25T12:28:49.808Z,99223.53
2023-02-25T12:32:03.352Z,99240.53
2023-02-25T12:34:51.987Z,99231.59
2023-02-25T12:37:42.097Z,99233.97
2023-02-25T12:40:28.656Z,99216.38
2023-02-25T12:43:03.947Z,99232.06
2023-02-25T12:45:56.768Z,99215.16
2023-02-25T12:48:27.637Z,99209.13
2023-02-25T12:51:24.731Z,99211.66
2023-02-25T12:54:14.732Z,99195.44
2023-02-25T12:57:04.256Z,99152.09
2023-02-25T13:00:06.133Z,99180.25
2023-02-25T13:03:00.562Z,99178.66
2023-02-25T13:05:49.866Z,99203.94
2023-02-25T13:08:29.578Z,99199.78
2023-02-25T13:11:10.633Z,99164.88
2023-02-25T13:14:16.929Z,99186.97
2023-02-25T13:16:59.444Z,99181.53
2023-02-25T13:20:20.519Z,99098.00
2023-02-25T13:22:57.482Z,99176.59
2023-02-25T13:25:57.761Z,99171.16
2023-02-25T13:28:56.779Z,99165.09
2023-02-25T13:31:39.592Z,99162.38
2023-02-25T13:34:40.312Z,99155.81
2023-02-25T13:37:27.145Z,99154.09
2023-02-25T13:40:23.650Z,99154.09
2023-02-25T13:43:09.511Z,99120.50
2023-02-25T13:45:37.437Z,99147.09
2023-02-25T13:48:56.075Z,99105.19
2023-02-25T13:51:48.889Z,99140.88
2023-02-25T13:54:35.310Z,99136.69
2023-02-25T13:57:27.364Z,99138.28
2023-02-25T14:00:26.030Z,99133.34
2023-02-25T14:03:00.209Z,99134.75
2023-02-25T14:05:35.871Z,99130.44
2023-02-25T14:08:22.184Z,99131.56
2023-02-25T14:11:27.117Z,99096.84
2023-02-25T14:14:14.580Z,99075.38
2023-02-25T14:17:28.039Z,99113.25
2023-02-25T14:20:18.880Z,99134.13
2023-02-25T14:22:54.378Z,99136.56
2023-02-25T14:25:56.424Z,99131.34
2023-02-25T14:28:37.278Z,99128.97
2023-02-25T14:31:57.314Z,99131.69
2023-02-25T14:34:50.764Z,99122.44
2023-02-25T14:37:21.503Z,99125.94
2023-02-25T14:40:24.063Z,99124.19
2023-02-25T14:43:10.849Z,99127.72
2023-02-25T14:45:56.706Z,99126.94
2023-02-25T14:48:35.900Z,99097.31
2023-02-25T14:51:13.062Z,99126.28
2023-02-25T14:54:29.187Z,99129.63
2023-02-25T14:57:18.213Z,99139.06
2023-02-25T14:59:51.858Z,99125.34
2023-02-25T15:02:38.657Z,99128.19
2023-02-25T15:05:23.584Z,99123.22
2023-02-25T15:08:07.259Z,99113.63
2023-02-25T15:10:57.474Z,99131.69
2023-02-25T15:14:02.802Z,99132.81
2023-02-25T15:16:36.330Z,99121.16
2023-02-25T15:19:23.728Z,99131.69
2023-02-25T15:22:11.525Z,99123.53
2023-02-25T15:24:41.878Z,99101.59
2023-02-25T15:27:37.706Z,99119.09
2023-02-25T15:30:08.336Z,99034.31
2023-02-25T15:32:52.564Z,99111.75
2023-02-25T15:35:24.575Z,99092.19
2023-02-25T15:37:52.410Z,99122.09
2023-02-25T15:40:24.511Z,99116.06
2023-02-25T15:42:57.183Z,99067.56
2023-02-25T15:45:28.137Z,99121.16
2023-02-25T15:48:08.258Z,99122.59
2023-02-25T15:50:42.278Z,99122.28
2023-02-25T15:53:25.838Z,99120.38
2023-02-25T15:56:05.864Z,99119.72
2023-02-25T15:58:33.799Z,99119.09
2023-02-25T16:01:07.856Z,99112.53
2023-02-25T16:03:35.589Z,99114.63
2023-02-25T16:06:19.192Z,99040.25
2023-02-25T16:09:05.953Z,99109.97
2023-02-25T16:11:45.496Z,99062.00
2023-02-25T16:14:21.974Z,99109.97
2023-02-25T16:16:57.437Z,99109.97
2023-02-25T16:19:33.521Z,99109.50
2023-02-25T16:22:22.430Z,99107.44
2023-02-25T16:24:56.182Z,98942.66
2023-02-25T16:27:48.594Z,99110.63
2023-02-25T16:30:21.421Z,99114.31
2023-02-25T16:32:49.536Z,99106.75
2023-02-25T16:35:28.984Z,99112.69
2023-02-25T16:38:22.605Z,99108.25
2023-02-25T16:40:53.090Z,99057.22
2023-02-25T16:43:27.773Z,99055.31
2023-02-25T16:45:58.940Z,99114.13
2023-02-25T16:48:50.503Z,99119.09
2023-02-25T16:51:43.646Z,99099.25
2023-02-25T16:54:19.850Z,99090.28
2023-02-25T16:56:51.108Z,99126.25
2023-02-25T16:59:24.420Z,99063.88
2023-02-25T17:01:52.629Z,99094.59
2023-02-25T17:04:30.993Z,99088.50
2023-02-25T17:07:04.950Z,99125.78
2023-02-25T17:09:33.317Z,99130.88
2023-02-25T17:12:03.774Z,99055.81
2023-02-25T17:14:32.477Z,99121.25
2023-02-25T17:17:00.457Z,99012.78
2023-02-25T17:19:29.049Z,99121.56
2023-02-25T17:21:59.234Z,99133.34
2023-02-25T17:24:31.292Z,99109.63
2023-02-25T17:27:00.771Z,99141.47
2023-02-25T17:29:36.863Z,99142.75
2023-02-25T17:32:21.586Z,99079.56
2023-02-25T17:34:52.665Z,99089.34
2023-02-25T17:37:22.682Z,99145.97
2023-02-25T17:39:52.343Z,99069.66
2023-02-25T17:42:41.723Z,99150.13
2023-02-25T17:45:38.650Z,99149.63
2023-02-25T17:48:14.331Z,99082.72
2023-02-25T17:50:42.278Z,99156.28
2023-02-25T17:53:29.852Z,99100.31
2023-02-25T17:56:25.062Z,99138.53
2023-02-25T17:58:58.930Z,99098.66
2023-02-25T18:01:57.365Z,99161.88
2023-02-25T18:04:41.582Z,99167.63
2023-02-25T18:07:32.839Z,99144.53
2023-02-25T18:10:01.550Z,99167.88
2023-02-25T18:12:33.635Z,99169.63
2023-02-25T18:15:05.255Z,99147.81
2023-02-25T18:17:37.149Z,99137.38
2023-02-25T18:20:25.591Z,99181.06
2023-02-25T18:22:54.307Z,99152.88
2023-02-25T18:25:40.514Z,99182.81
2023-02-25T18:28:17.753Z,99112.41
2023-02-25T18:30:45.774Z,99145.50
2023-02-25T18:33:13.633Z,99155.44
2023-02-25T18:35:43.718Z,99159.13
2023-02-25T18:38:18.690Z,99199.94
2023-02-25T18:40:48.138Z,99069.47
2023-02-25T18:43:20.015Z,99183.09
2023-02-25T18:45:47.964Z,99011.84
2023-02-25T18:48:16.391Z,99156.75
2023-02-25T18:50:44.920Z,98965.81
2023-02-25T18:53:19.799Z,99175.47
2023-02-25T18:55:49.673Z,99103.50
2023-02-25T18:58:19.262Z,99173.84
2023-02-25T19:00:50.244Z,99207.69
2023-02-25T19:03:30.906Z,99169.63
2023-02-25T19:05:59.054Z,99145.88
2023-02-25T19:08:26.913Z,99100.03
2023-02-25T19:10:55.232Z,99078.34
2023-02-25T19:13:38.964Z,99126.50
2023-02-25T19:16:08.098Z,99174.91
2023-02-25T19:18:37.827Z,99213.63
2023-02-25T19:21:12.059Z,99227.81
2023-02-25T19:23:40.165Z,99216.28
2023-02-25T19:26:09.520Z,99174.59
2023-02-25T19:28:37.925Z,99073.63
2023-02-25T19:31:09.303Z,99189.06
2023-02-25T19:33:37.284Z,99209.16
2023-02-25T19:36:05.502Z,99153.53
2023-02-25T19:38:33.620Z,99211.19
2023-02-25T19:41:05.339Z,99151.94
2023-02-25T19:43:33.621Z,99217.47
2023-02-25T19:46:02.610Z,99201.81
2023-02-25T19:48:33.938Z,99085.06
2023-02-25T19:51:09.863Z,99214.56
2023-02-25T19:53:37.971Z,99090.41
2023-02-25T19:56:08.132Z,99218.72
2023-02-25T19:58:36.088Z,99193.31
2023-02-25T20:01:06.670Z,99220.88
2023-02-25T20:03:36.239Z,99224.38
2023-02-25T20:06:07.012Z,99225.97
2023-02-25T20:08:36.941Z,99192.53
2023-02-25T20:11:12.978Z,99218.16
2023-02-25T20:13:44.093Z,99153.50
2023-02-25T20:16:12.955Z,99231.66
2023-02-25T20:18:41.330Z,99169.75
2023-02-25T20:21:10.448Z,99241.72
2023-02-25T20:23:40.623Z,99161.13
2023-02-25T20:26:15.769Z,99232.16
2023-02-25T20:28:43.616Z,99199.09
2023-02-25T20:31:15.439Z,99236.59
2023-02-25T20:33:43.951Z,99164.44
2023-02-25T20:36:28.858Z,99239.31
2023-02-25T20:38:58.048Z,99232.47
2023-02-25T20:41:27.238Z,99231.22
2023-02-25T20:43:55.126Z,99221.69
2023-02-25T20:46:26.429Z,99214.16
2023-02-25T20:48:55.423Z,99195.88
2023-02-25T20:51:23.674Z,99117.88
2023-02-25T20:53:51.909Z,99257.78
2023-02-25T20:56:26.814Z,99021.75
2023-02-25T20:58:56.073Z,99256.31
2023-02-25T21:01:23.884Z,99211.66
2023-02-25T21:03:51.983Z,99245.84
2023-02-25T21:06:23.396Z,99263.09
2023-02-25T21:08:52.457Z,99229.53
2023-02-25T21:11:24.484Z,99233.50
2023-02-25T21:13:54.741Z,99187.88
2023-02-25T21:16:23.876Z,99248.31
2023-02-25T21:18:52.476Z,99269.56
2023-02-25T21:21:22.679Z,99260.44
2023-02-25T21:23:52.806Z,99251.44
2023-02-25T21:26:21.025Z,99270.00
2023-02-25T21:28:49.544Z,99283.88
2023-02-25T21:31:17.580Z,99237.44
2023-02-25T21:33:45.616Z,99270.25
2023-02-25T21:36:13.418Z,99168.84
2023-02-25T21:38:41.354Z,99276.66
2023-02-25T21:41:14.724Z,99273.13
2023-02-25T21:43:43.195Z,99249.78
2023-02-25T21:46:14.183Z,99261.31
2023-02-25T21:48:44.197Z,99262.97
2023-02-25T21:51:18.129Z,99160.88
2023-02-25T21:53:46.591Z,99267.19
2023-02-25T21:56:17.156Z,99271.97
2023-02-25T21:58:46.769Z,99266.75
2023-02-25T22:01:17.311Z,99266.94
2023-02-25T22:03:47.905Z,99269.63
2023-02-25T22:06:17.073Z,99155.34
2023-02-25T22:08:46.491Z,99247.50
2023-02-25T22:11:17.058Z,99243.38
2023-02-25T22:13:44.957Z,99114.97
2023-02-25T22:16:15.542Z,99203.31
2023-02-25T22:18:44.346Z,99278.75
2023-02-25T22:21:20.398Z,99175.59
2023-02-25T22:23:49.685Z,99273.94
2023-02-25T22:26:24.968Z,99279.84
2023-02-25T22:28:55.738Z,98954.09
2023-02-25T22:31:24.635Z,99217.66
2023-02-25T22:33:53.310Z,99276.34
2023-02-25T22:36:21.768Z,99283.69
2023-02-25T22:38:49.963Z,99146.41
2023-02-25T22:41:21.618Z,99278.41
2023-02-25T22:43:50.266Z,99259.56
2023-02-25T22:46:22.126Z,99140.03
2023-02-25T22:48:55.139Z,99240.41
2023-02-25T22:51:37.119Z,99162.94
2023-02-25T22:54:05.594Z,99273.78
2023-02-25T22:56:34.543Z,99259.16
2023-02-25T22:59:02.535Z,98957.94
2023-02-25T23:01:31.328Z,99046.72
2023-02-25T23:03:59.869Z,99265.75
2023-02-25T23:06:43.420Z,99267.34
2023-02-25T23:09:14.956Z,99249.41
2023-02-25T23:11:45.405Z,99237.81
2023-02-25T23:14:17.504Z,99162.16
2023-02-25T23:16:46.066Z,99269.56
2023-02-25T23:19:17.291Z,99270.38
2023-02-25T23:21:46.654Z,99217.88
2023-02-25T23:24:18.711Z,99258.53
2023-02-25T23:26:50.577Z,99261.25
2023-02-25T23:29:19.123Z,99239.56
2023-02-25T23:31:48.256Z,99176.28
2023-02-25T23:34:26.970Z,99255.31
2023-02-25T23:36:58.597Z,99170.06
2023-02-25T23:39:30.877Z,99257.72
2023-02-25T23:41:58.757Z,99260.97
2023-02-25T23:44:26.712Z,99171.97
2023-02-25T23:46:57.045Z,99206.88
2023-02-25T23:49:25.164Z,99261.56
2023-02-25T23:51:54.027Z,99010.56
2023-02-25T23:54:22.904Z,99253.25
2023-02-25T23:56:51.249Z,99250.53
2023-02-25T23:59:22.317Z,99210.25
